Time;durP1;ratioP1;P1;durP2;ratioP2;P2;SDS_P1;SDS_P2;PMS_P1;PMS_P2;Temp;Humidity;BMP_temperature;BMP_pressure;BME280_temperature;BME280_humidity;BME280_pressure;Samples;Min_cycle;Max_cycle;Signal;HPM_P1;HPM_P2
2023/07/06 00:02:25;;;;;;;7.10;2.50;;;;;;;;;;106289;1288;22543;-77
2023/07/06 00:04:52;;;;;;;8.80;2.80;;;;;;;;;;106191;1288;22512;-83
2023/07/06 00:07:22;;;;;;;7.20;2.50;;;;;;;;;;106041;1270;22753;-81
2023/07/06 00:09:50;;;;;;;7.40;2.70;;;;;;;;;;106036;1288;22546;-77
2023/07/06 00:12:18;;;;;;;7.60;2.60;;;;;;;;;;107525;1285;3108562;-76
2023/07/06 00:14:45;;;;;;;8.30;2.60;;;;;;;;;;109881;1285;22112;-77
2023/07/06 00:17:13;;;;;;;7.30;2.60;;;;;;;;;;109880;1268;22736;-77
2023/07/06 00:19:41;;;;;;;6.40;2.50;;;;;;;;;;109880;1285;22093;-77
2023/07/06 00:22:09;;;;;;;8.50;2.60;;;;;;;;;;109883;1285;22996;-76
2023/07/06 00:24:36;;;;;;;7.10;2.40;;;;;;;;;;109891;1285;22911;-77
2023/07/06 00:27:03;;;;;;;8.80;2.30;;;;;;;;;;109866;1263;22164;-77
2023/07/06 00:29:34;;;;;;;7.70;2.50;;;;;;;;;;109844;1285;22817;-77
2023/07/06 00:32:15;;;;;;;6.30;2.40;;;;;;;;;;109895;1285;22086;-77
2023/07/06 00:34:43;;;;;;;5.90;2.00;;;;;;;;;;109881;1281;22372;-77
2023/07/06 00:37:12;;;;;;;6.80;2.20;;;;;;;;;;109913;1263;22860;-77
2023/07/06 00:39:38;;;;;;;7.10;2.60;;;;;;;;;;109883;1285;22142;-77
2023/07/06 00:42:13;;;;;;;9.70;2.80;;;;;;;;;;109941;1285;22728;-77
2023/07/06 00:44:54;;;;;;;7.50;2.50;;;;;;;;;;109828;1285;22119;-77
2023/07/06 00:47:29;;;;;;;6.60;2.50;;;;;;;;;;109864;1263;22862;-77
2023/07/06 00:50:02;;;;;;;6.10;2.40;;;;;;;;;;109831;1286;22123;-77
2023/07/06 00:52:29;;;;;;;8.60;2.60;;;;;;;;;;109855;1286;22148;-77
2023/07/06 00:54:56;;;;;;;7.00;2.60;;;;;;;;;;109877;1286;21914;-77
2023/07/06 00:57:23;;;;;;;7.50;2.30;;;;;;;;;;109781;1263;22374;-78
2023/07/06 00:59:50;;;;;;;7.90;2.60;;;;;;;;;;109790;1286;22709;-77
2023/07/06 01:02:17;;;;;;;8.50;2.60;;;;;;;;;;109904;1286;22154;-76
2023/07/06 01:04:45;;;;;;;8.30;2.90;;;;;;;;;;109814;1286;22131;-76
2023/07/06 01:07:24;;;;;;;8.20;2.70;;;;;;;;;;109894;1286;22290;-77
2023/07/06 01:09:52;;;;;;;7.30;2.60;;;;;;;;;;110039;1266;22769;-78
2023/07/06 01:12:20;;;;;;;7.50;2.40;;;;;;;;;;109901;1286;22809;-76
2023/07/06 01:14:47;;;;;;;7.40;2.90;;;;;;;;;;109895;1286;22123;-77
2023/07/06 01:17:24;;;;;;;7.60;2.70;;;;;;;;;;109888;1286;22139;-77
2023/07/06 01:19:56;;;;;;;6.50;2.50;;;;;;;;;;110014;1268;21691;-77
2023/07/06 01:22:26;;;;;;;7.50;2.30;;;;;;;;;;109862;1286;22815;-77
2023/07/06 01:25:02;;;;;;;7.00;2.60;;;;;;;;;;109863;1286;22098;-77
2023/07/06 01:27:50;;;;;;;7.30;2.60;;;;;;;;;;109800;1286;22119;-77
2023/07/06 01:30:24;;;;;;;7.80;2.50;;;;;;;;;;109996;1263;22824;-77
2023/07/06 01:32:57;;;;;;;7.40;2.70;;;;;;;;;;109807;1286;22873;-77
2023/07/06 01:35:31;;;;;;;9.90;2.80;;;;;;;;;;109805;1286;22813;-77
2023/07/06 01:37:59;;;;;;;7.80;2.70;;;;;;;;;;109866;1286;22809;-77
2023/07/06 01:40:26;;;;;;;8.00;2.50;;;;;;;;;;109974;1265;22127;-77
2023/07/06 01:42:53;;;;;;;7.40;2.50;;;;;;;;;;109838;1286;23066;-77
2023/07/06 01:45:21;;;;;;;6.70;2.50;;;;;;;;;;109835;1286;22124;-77
2023/07/06 01:47:50;;;;;;;6.90;2.80;;;;;;;;;;109797;1286;22113;-77
2023/07/06 01:50:19;;;;;;;8.60;2.40;;;;;;;;;;109899;1265;22498;-77
2023/07/06 01:52:46;;;;;;;7.00;2.80;;;;;;;;;;109812;1287;22163;-77
2023/07/06 01:55:20;;;;;;;8.00;2.50;;;;;;;;;;109833;1287;22441;-77
2023/07/06 01:57:51;;;;;;;7.30;2.40;;;;;;;;;;109817;1287;22114;-77
2023/07/06 02:00:19;;;;;;;7.40;2.60;;;;;;;;;;109914;1268;22159;-77
2023/07/06 02:02:51;;;;;;;9.10;2.40;;;;;;;;;;109866;1287;22108;-77
2023/07/06 02:05:19;;;;;;;9.70;2.90;;;;;;;;;;109829;1286;22966;-77
2023/07/06 02:07:46;;;;;;;7.70;2.90;;;;;;;;;;109812;1287;22176;-77
2023/07/06 02:10:14;;;;;;;6.90;2.60;;;;;;;;;;109850;1267;22135;-77
2023/07/06 02:12:42;;;;;;;5.80;2.30;;;;;;;;;;109808;1287;22125;-77
2023/07/06 02:15:10;;;;;;;7.70;3.00;;;;;;;;;;109830;1287;22375;-77
2023/07/06 02:17:36;;;;;;;7.50;2.30;;;;;;;;;;109770;1281;22130;-79
2023/07/06 02:20:04;;;;;;;7.90;2.70;;;;;;;;;;109850;1266;22180;-76
2023/07/06 02:22:32;;;;;;;7.70;2.70;;;;;;;;;;109870;1287;22153;-77
2023/07/06 02:24:59;;;;;;;8.30;2.70;;;;;;;;;;109844;1287;22145;-81
2023/07/06 02:27:26;;;;;;;8.40;2.90;;;;;;;;;;109752;1287;21989;-77
2023/07/06 02:29:52;;;;;;;7.40;2.60;;;;;;;;;;109864;1269;22861;-77
2023/07/06 02:32:19;;;;;;;8.80;2.60;;;;;;;;;;109697;1287;22717;-76
2023/07/06 02:34:46;;;;;;;6.80;2.50;;;;;;;;;;109750;1287;22116;-76
2023/07/06 02:37:13;;;;;;;6.30;2.60;;;;;;;;;;109837;1287;22271;-77
2023/07/06 02:39:41;;;;;;;7.80;2.70;;;;;;;;;;109759;1263;22179;-77
2023/07/06 02:42:08;;;;;;;8.40;2.60;;;;;;;;;;109782;1287;22430;-77
2023/07/06 02:44:37;;;;;;;8.00;2.80;;;;;;;;;;110363;1276;22139;-77
2023/07/06 02:47:03;;;;;;;7.40;3.10;;;;;;;;;;110672;1276;22428;-78
2023/07/06 02:49:33;;;;;;;7.70;2.80;;;;;;;;;;110382;1276;22128;-77
2023/07/06 02:52:00;;;;;;;9.30;3.30;;;;;;;;;;110768;1259;22120;-77
2023/07/06 02:54:27;;;;;;;9.10;3.00;;;;;;;;;;110499;1276;22102;-77
2023/07/06 02:56:56;;;;;;;10.10;3.30;;;;;;;;;;110595;1276;22092;-77
2023/07/06 02:59:22;;;;;;;9.10;3.30;;;;;;;;;;110453;1276;22099;-77
2023/07/06 03:01:49;;;;;;;8.70;3.90;;;;;;;;;;110791;1258;22862;-77
2023/07/06 03:04:17;;;;;;;9.80;3.80;;;;;;;;;;110643;1276;22089;-77
2023/07/06 03:06:45;;;;;;;10.90;4.30;;;;;;;;;;110482;1276;22133;-77
2023/07/06 03:09:12;;;;;;;10.40;3.10;;;;;;;;;;110476;1276;22114;-76
2023/07/06 03:11:43;;;;;;;7.40;3.30;;;;;;;;;;110435;1259;22837;-77
2023/07/06 03:14:11;;;;;;;7.60;2.90;;;;;;;;;;110444;1277;22114;-76
2023/07/06 03:16:40;;;;;;;7.00;2.60;;;;;;;;;;110459;1277;22112;-76
2023/07/06 03:19:08;;;;;;;7.30;2.30;;;;;;;;;;110448;1277;22459;-77
2023/07/06 03:21:37;;;;;;;6.90;2.60;;;;;;;;;;110581;1258;22104;-76
2023/07/06 03:24:08;;;;;;;6.90;2.70;;;;;;;;;;110659;1276;22068;-77
2023/07/06 03:26:36;;;;;;;8.40;3.40;;;;;;;;;;110653;1276;22125;-77
2023/07/06 03:29:03;;;;;;;9.20;3.60;;;;;;;;;;110483;1276;22102;-77
2023/07/06 03:31:32;;;;;;;9.90;3.50;;;;;;;;;;110385;1261;22204;-77
2023/07/06 03:34:00;;;;;;;10.80;3.90;;;;;;;;;;110372;1277;22800;-77
2023/07/06 03:36:27;;;;;;;11.90;3.60;;;;;;;;;;110464;1277;22116;-77
2023/07/06 03:38:57;;;;;;;9.70;3.50;;;;;;;;;;110325;1277;22116;-77
2023/07/06 03:41:23;;;;;;;11.20;3.80;;;;;;;;;;110616;1259;22157;-77
2023/07/06 03:43:56;;;;;;;9.10;3.90;;;;;;;;;;110341;1276;22287;-77
2023/07/06 03:46:26;;;;;;;10.90;4.20;;;;;;;;;;110674;1276;22104;-77
2023/07/06 03:48:55;;;;;;;9.70;3.50;;;;;;;;;;110356;1276;22097;-77
2023/07/06 03:51:21;;;;;;;10.40;3.70;;;;;;;;;;110505;1259;22940;-77
2023/07/06 03:53:51;;;;;;;9.80;3.20;;;;;;;;;;110459;1277;22064;-77
2023/07/06 03:56:27;;;;;;;10.70;3.70;;;;;;;;;;110326;1277;22647;-77
2023/07/06 03:58:56;;;;;;;8.70;3.50;;;;;;;;;;110450;1277;22857;-77
2023/07/06 04:01:27;;;;;;;10.10;3.20;;;;;;;;;;110440;1253;22149;-77
2023/07/06 04:04:05;;;;;;;14.30;3.50;;;;;;;;;;110319;1276;22952;-77
2023/07/06 04:13:37;;;;;;;9.80;3.70;;;;;;;;;;110016;1261;22818;-78
2023/07/06 04:16:05;;;;;;;8.40;3.60;;;;;;;;;;109949;1280;22493;-77
2023/07/06 04:18:33;;;;;;;9.70;4.20;;;;;;;;;;109880;1284;22131;-77
2023/07/06 04:21:01;;;;;;;14.90;5.90;;;;;;;;;;109960;1283;22175;-78
2023/07/06 04:23:28;;;;;;;12.50;6.10;;;;;;;;;;110204;1264;22847;-77
2023/07/06 04:25:55;;;;;;;16.30;6.50;;;;;;;;;;109933;1283;22942;-77
2023/07/06 04:28:21;;;;;;;14.20;6.00;;;;;;;;;;109935;1283;22112;-77
2023/07/06 04:30:49;;;;;;;15.80;5.40;;;;;;;;;;109978;1283;22956;-77
2023/07/06 04:33:19;;;;;;;12.00;5.60;;;;;;;;;;109974;1267;22150;-77
2023/07/06 04:35:52;;;;;;;15.40;5.70;;;;;;;;;;109924;1284;22862;-77
2023/07/06 04:38:19;;;;;;;10.20;4.30;;;;;;;;;;109943;1284;22677;-77
2023/07/06 04:40:49;;;;;;;11.00;3.90;;;;;;;;;;109857;1284;22167;-77
2023/07/06 04:43:16;;;;;;;9.80;4.30;;;;;;;;;;110119;1265;22958;-77
2023/07/06 04:45:44;;;;;;;11.70;4.30;;;;;;;;;;109984;1276;22152;-77
2023/07/06 04:48:12;;;;;;;15.10;4.50;;;;;;;;;;110341;1276;22098;-77
2023/07/06 04:50:39;;;;;;;13.50;4.30;;;;;;;;;;110379;1275;22105;-76
2023/07/06 04:53:07;;;;;;;19.80;4.40;;;;;;;;;;110536;1256;22108;-77
2023/07/06 04:55:37;;;;;;;11.40;3.50;;;;;;;;;;110345;1262;22103;-77
2023/07/06 04:58:05;;;;;;;19.20;3.50;;;;;;;;;;110452;1277;22581;-77
2023/07/06 05:00:34;;;;;;;19.10;3.60;;;;;;;;;;110488;1277;22074;-77
2023/07/06 05:03:03;;;;;;;22.70;3.60;;;;;;;;;;110363;1259;22143;-77
2023/07/06 05:05:40;;;;;;;15.20;3.70;;;;;;;;;;110462;1277;22267;-77
2023/07/06 05:08:09;;;;;;;12.30;3.70;;;;;;;;;;110466;1277;22417;-77
2023/07/06 05:10:35;;;;;;;13.10;3.90;;;;;;;;;;110335;1277;22262;-77
2023/07/06 05:13:03;;;;;;;14.10;3.70;;;;;;;;;;110312;1259;22227;-77
2023/07/06 05:15:30;;;;;;;16.90;3.50;;;;;;;;;;110357;1277;22159;-76
2023/07/06 05:17:57;;;;;;;11.40;3.50;;;;;;;;;;110314;1277;22068;-77
2023/07/06 05:20:24;;;;;;;12.50;4.00;;;;;;;;;;110346;1277;22732;-77
2023/07/06 05:22:52;;;;;;;9.40;3.10;;;;;;;;;;110342;1253;22406;-77
2023/07/06 05:25:19;;;;;;;11.70;3.30;;;;;;;;;;110328;1278;22087;-77
2023/07/06 05:27:47;;;;;;;19.80;3.70;;;;;;;;;;110312;1277;22106;-77
2023/07/06 05:30:14;;;;;;;12.80;3.60;;;;;;;;;;110321;1277;22104;-77
2023/07/06 05:32:41;;;;;;;10.50;3.20;;;;;;;;;;110263;1277;22072;-77
2023/07/06 05:35:09;;;;;;;14.60;3.20;;;;;;;;;;110541;1262;22868;-77
2023/07/06 05:37:37;;;;;;;16.20;3.70;;;;;;;;;;110359;1277;22811;-76
2023/07/06 05:40:06;;;;;;;11.60;3.50;;;;;;;;;;110411;1277;23137;-77
2023/07/06 05:42:33;;;;;;;13.50;3.40;;;;;;;;;;110450;1277;22110;-77
2023/07/06 05:45:00;;;;;;;13.70;3.30;;;;;;;;;;110566;1256;22126;-77
2023/07/06 05:47:27;;;;;;;13.00;3.30;;;;;;;;;;110316;1277;22117;-76
2023/07/06 05:49:55;;;;;;;16.00;3.40;;;;;;;;;;110332;1278;22203;-77
2023/07/06 05:52:22;;;;;;;16.50;3.40;;;;;;;;;;110319;1278;22264;-77
2023/07/06 05:54:50;;;;;;;18.90;3.60;;;;;;;;;;110348;1257;22837;-77
2023/07/06 05:57:19;;;;;;;14.10;4.10;;;;;;;;;;110323;1278;22105;-77
2023/07/06 05:59:48;;;;;;;18.60;4.10;;;;;;;;;;110426;1278;22096;-77
2023/07/06 06:02:17;;;;;;;16.40;3.80;;;;;;;;;;110308;1278;22724;-77
2023/07/06 06:04:47;;;;;;;17.90;4.00;;;;;;;;;;110378;1259;22253;-77
2023/07/06 06:07:15;;;;;;;16.40;3.60;;;;;;;;;;110313;1277;22078;-77
2023/07/06 06:09:42;;;;;;;15.70;3.80;;;;;;;;;;110443;1277;22104;-77
2023/07/06 06:12:17;;;;;;;11.70;3.90;;;;;;;;;;110441;1278;22119;-77
2023/07/06 06:14:46;;;;;;;13.30;3.80;;;;;;;;;;110339;1259;22190;-77
2023/07/06 06:17:15;;;;;;;15.20;4.00;;;;;;;;;;110422;1273;21975;-77
2023/07/06 06:19:44;;;;;;;27.40;4.50;;;;;;;;;;110324;1278;22193;-77
2023/07/06 06:22:14;;;;;;;20.00;3.90;;;;;;;;;;110307;1278;22102;-77
2023/07/06 06:24:42;;;;;;;23.40;4.20;;;;;;;;;;110413;1259;22217;-77
2023/07/06 06:27:11;;;;;;;20.90;4.00;;;;;;;;;;110458;1278;22064;-76
2023/07/06 06:29:39;;;;;;;23.60;4.00;;;;;;;;;;110451;1278;22159;-77
2023/07/06 06:32:07;;;;;;;17.70;3.40;;;;;;;;;;110317;1275;22085;-77
2023/07/06 06:34:35;;;;;;;17.10;4.00;;;;;;;;;;110433;1254;22880;-77
2023/07/06 06:37:04;;;;;;;23.20;3.80;;;;;;;;;;110298;1278;22760;-77
2023/07/06 06:39:33;;;;;;;20.40;4.40;;;;;;;;;;110317;1278;22099;-77
2023/07/06 06:42:02;;;;;;;18.90;3.90;;;;;;;;;;110328;1278;21960;-77
2023/07/06 06:44:30;;;;;;;19.60;5.30;;;;;;;;;;110429;1254;21696;-77
2023/07/06 06:47:01;;;;;;;16.40;4.70;;;;;;;;;;110317;1278;22110;-77
2023/07/06 06:49:29;;;;;;;16.80;3.60;;;;;;;;;;110315;1278;23117;-77
2023/07/06 06:52:01;;;;;;;17.20;3.90;;;;;;;;;;110330;1278;22120;-77
2023/07/06 06:54:31;;;;;;;17.80;3.60;;;;;;;;;;110278;1278;22220;-77
2023/07/06 06:57:02;;;;;;;15.40;3.20;;;;;;;;;;110318;1263;22904;-77
2023/07/06 06:59:32;;;;;;;15.60;3.30;;;;;;;;;;110271;1278;22106;-77
2023/07/06 07:02:03;;;;;;;18.60;3.60;;;;;;;;;;110264;1278;22120;-77
2023/07/06 07:04:33;;;;;;;16.20;3.10;;;;;;;;;;110286;1278;21981;-77
2023/07/06 07:07:03;;;;;;;19.90;3.50;;;;;;;;;;110564;1263;22112;-77
2023/07/06 07:09:34;;;;;;;17.40;3.30;;;;;;;;;;110251;1278;22103;-77
2023/07/06 07:12:03;;;;;;;13.50;2.90;;;;;;;;;;110243;1278;22122;-77
2023/07/06 07:14:31;;;;;;;16.30;3.50;;;;;;;;;;110320;1278;22148;-77
2023/07/06 07:17:03;;;;;;;6.70;2.40;;;;;;;;;;110548;1260;22097;-77
2023/07/06 07:19:31;;;;;;;9.90;2.70;;;;;;;;;;110311;1278;23003;-77
2023/07/06 07:22:00;;;;;;;7.20;2.70;;;;;;;;;;110288;1278;22119;-77
2023/07/06 07:24:29;;;;;;;7.30;2.60;;;;;;;;;;110279;1278;22924;-76
2023/07/06 07:26:59;;;;;;;6.90;2.20;;;;;;;;;;110511;1260;22205;-77
2023/07/06 07:29:29;;;;;;;6.20;2.50;;;;;;;;;;110269;1278;22122;-77
2023/07/06 07:31:59;;;;;;;8.90;2.40;;;;;;;;;;110273;1278;22134;-77
2023/07/06 07:34:28;;;;;;;6.30;2.40;;;;;;;;;;110293;1278;21777;-77
2023/07/06 07:36:58;;;;;;;8.10;2.40;;;;;;;;;;110589;1259;22120;-76
2023/07/06 07:39:26;;;;;;;10.30;2.60;;;;;;;;;;110272;1278;22201;-77
2023/07/06 07:41:56;;;;;;;9.70;2.70;;;;;;;;;;110300;1278;22945;-77
2023/07/06 07:44:28;;;;;;;10.70;4.20;;;;;;;;;;110307;1278;22107;-77
2023/07/06 07:47:03;;;;;;;9.40;3.00;;;;;;;;;;110395;1262;22145;-78
2023/07/06 07:56:26;;;;;;;6.70;2.50;;;;;;;;;;103962;1303;544691;-77
2023/07/06 07:58:53;;;;;;;8.30;2.30;;;;;;;;;;105979;1285;25364;-80
2023/07/06 08:01:25;;;;;;;10.50;2.40;;;;;;;;;;106105;1282;21818;-77
2023/07/06 08:03:54;;;;;;;10.40;2.80;;;;;;;;;;106522;1276;24064;-77
2023/07/06 08:06:22;;;;;;;8.10;2.90;;;;;;;;;;106735;1263;24051;-77
2023/07/06 08:08:50;;;;;;;9.40;2.70;;;;;;;;;;106723;1279;22537;-77
2023/07/06 08:11:21;;;;;;;11.50;2.90;;;;;;;;;;104346;1270;22532;-81
2023/07/06 08:13:53;;;;;;;11.00;2.70;;;;;;;;;;106898;1269;22520;-80
2023/07/06 08:16:21;;;;;;;14.90;3.20;;;;;;;;;;106792;1264;22531;-78
2023/07/06 08:18:52;;;;;;;9.50;2.60;;;;;;;;;;106625;1275;22524;-78
2023/07/06 08:21:19;;;;;;;14.00;2.50;;;;;;;;;;106745;1270;22525;-79
2023/07/06 08:23:48;;;;;;;10.30;2.80;;;;;;;;;;106953;1271;26493;-77
2023/07/06 08:26:15;;;;;;;6.60;2.50;;;;;;;;;;106933;1260;22480;-83
2023/07/06 08:28:44;;;;;;;9.50;2.70;;;;;;;;;;106888;1270;23251;-77
2023/07/06 08:31:12;;;;;;;7.00;2.60;;;;;;;;;;106954;1270;24255;-81
2023/07/06 08:33:39;;;;;;;7.40;2.50;;;;;;;;;;106911;1276;22523;-78
2023/07/06 08:36:07;;;;;;;7.70;2.50;;;;;;;;;;106899;1255;22558;-82
2023/07/06 08:38:37;;;;;;;8.60;2.70;;;;;;;;;;106794;1277;22519;-81
2023/07/06 08:41:29;;;;;;;7.80;2.50;;;;;;;;;;106857;1270;22633;-79
2023/07/06 08:44:00;;;;;;;7.50;2.60;;;;;;;;;;107069;1264;22545;-82
2023/07/06 08:46:29;;;;;;;9.00;2.50;;;;;;;;;;106904;1255;22770;-76
2023/07/06 08:48:56;;;;;;;9.00;2.60;;;;;;;;;;106774;1270;22776;-83
2023/07/06 08:51:27;;;;;;;7.40;2.40;;;;;;;;;;106463;1276;22938;-78
2023/07/06 08:54:02;;;;;;;4.90;2.10;;;;;;;;;;106651;1278;22521;-82
2023/07/06 08:56:34;;;;;;;6.20;2.40;;;;;;;;;;106896;1257;22527;-77
2023/07/06 08:59:02;;;;;;;6.70;2.30;;;;;;;;;;106962;1270;22536;-77
2023/07/06 09:01:31;;;;;;;7.10;2.50;;;;;;;;;;106926;1278;22524;-79
2023/07/06 09:04:00;;;;;;;9.50;2.50;;;;;;;;;;106804;1270;22534;-83
2023/07/06 09:06:28;;;;;;;8.00;2.30;;;;;;;;;;106683;1278;23111;-78
2023/07/06 09:09:02;;;;;;;6.50;2.20;;;;;;;;;;106426;1261;22530;-81
2023/07/06 09:11:31;;;;;;;9.60;2.60;;;;;;;;;;106876;1278;22583;-78
2023/07/06 09:14:00;;;;;;;8.40;2.60;;;;;;;;;;107199;1278;22526;-77
2023/07/06 09:16:27;;;;;;;8.50;2.50;;;;;;;;;;107100;1278;24264;-80
2023/07/06 09:18:54;;;;;;;6.90;2.20;;;;;;;;;;107097;1278;25046;-80
2023/07/06 09:21:25;;;;;;;8.80;2.90;;;;;;;;;;107010;1278;24491;-78
2023/07/06 09:23:53;;;;;;;7.00;2.50;;;;;;;;;;107104;1278;22546;-80
2023/07/06 09:26:35;;;;;;;8.50;2.40;;;;;;;;;;107007;1278;24197;-78
2023/07/06 09:29:13;;;;;;;8.30;2.80;;;;;;;;;;106854;1270;22523;-81
2023/07/06 09:31:41;;;;;;;10.80;2.80;;;;;;;;;;106961;1278;24263;-78
2023/07/06 09:34:24;;;;;;;7.70;2.20;;;;;;;;;;107000;1278;22578;-77
2023/07/06 09:36:51;;;;;;;6.30;2.30;;;;;;;;;;106857;1278;23121;-80
2023/07/06 09:39:18;;;;;;;8.10;2.70;;;;;;;;;;106864;1261;22636;-82
2023/07/06 09:41:46;;;;;;;8.30;2.70;;;;;;;;;;106992;1270;22761;-83
2023/07/06 09:44:15;;;;;;;9.30;2.50;;;;;;;;;;106858;1278;25385;-80
2023/07/06 09:46:43;;;;;;;8.50;2.50;;;;;;;;;;106882;1278;25281;-78
2023/07/06 09:49:16;;;;;;;12.00;2.90;;;;;;;;;;106869;1260;25224;-78
2023/07/06 09:51:50;;;;;;;8.70;2.80;;;;;;;;;;106880;1278;22649;-79
2023/07/06 09:54:25;;;;;;;6.40;2.70;;;;;;;;;;106939;1273;24260;-84
2023/07/06 09:56:53;;;;;;;7.00;2.30;;;;;;;;;;106934;1278;24234;-81
2023/07/06 09:59:20;;;;;;;7.60;2.30;;;;;;;;;;110247;1258;22167;-78
2023/07/06 10:01:50;;;;;;;7.70;2.20;;;;;;;;;;110264;1278;22192;-78
2023/07/06 10:04:33;;;;;;;8.30;2.70;;;;;;;;;;110311;1278;22110;-78
2023/07/06 10:07:05;;;;;;;8.40;2.30;;;;;;;;;;110427;1278;22162;-78
2023/07/06 10:09:38;;;;;;;6.10;2.10;;;;;;;;;;110395;1255;22958;-79
2023/07/06 10:12:31;;;;;;;6.60;2.00;;;;;;;;;;110395;1278;22067;-78
2023/07/06 10:15:00;;;;;;;6.00;2.20;;;;;;;;;;110345;1278;23100;-78
2023/07/06 10:17:27;;;;;;;6.00;2.10;;;;;;;;;;110269;1278;22318;-78
2023/07/06 10:19:57;;;;;;;6.30;2.40;;;;;;;;;;110266;1260;22137;-79
2023/07/06 10:22:23;;;;;;;5.40;2.00;;;;;;;;;;110285;1278;22250;-79
2023/07/06 10:24:56;;;;;;;7.50;2.10;;;;;;;;;;110409;1278;22120;-78
2023/07/06 10:27:28;;;;;;;12.40;6.10;;;;;;;;;;110298;1275;22117;-79
2023/07/06 10:29:58;;;;;;;9.00;4.10;;;;;;;;;;110395;1258;22367;-76
2023/07/06 10:32:28;;;;;;;9.30;2.60;;;;;;;;;;110315;1278;22858;-77
2023/07/06 10:35:08;;;;;;;5.30;1.90;;;;;;;;;;110099;1278;22137;-77
2023/07/06 10:37:35;;;;;;;6.30;2.20;;;;;;;;;;110276;1278;22110;-76
2023/07/06 10:40:10;;;;;;;7.20;2.00;;;;;;;;;;110427;1256;22606;-76
2023/07/06 10:42:41;;;;;;;5.80;2.00;;;;;;;;;;110302;1278;22192;-76
2023/07/06 10:45:35;;;;;;;9.30;2.50;;;;;;;;;;110394;1278;22431;-76
2023/07/06 10:48:21;;;;;;;6.50;2.40;;;;;;;;;;110402;1278;22126;-76
2023/07/06 10:51:04;;;;;;;5.90;2.00;;;;;;;;;;110328;1256;22905;-76
2023/07/06 10:53:41;;;;;;;11.20;2.40;;;;;;;;;;110202;1278;22185;-76
2023/07/06 10:56:11;;;;;;;6.00;2.20;;;;;;;;;;110177;1278;23189;-75
2023/07/06 10:58:57;;;;;;;8.20;2.30;;;;;;;;;;110344;1278;22082;-76
2023/07/06 11:01:29;;;;;;;6.90;2.20;;;;;;;;;;110139;1278;22134;-76
2023/07/06 11:03:56;;;;;;;6.40;2.00;;;;;;;;;;110200;1278;22133;-76
2023/07/06 11:06:41;;;;;;;5.30;1.90;;;;;;;;;;110349;1263;22130;-75
2023/07/06 11:09:08;;;;;;;6.30;2.00;;;;;;;;;;110627;1276;22094;-76
2023/07/06 11:11:38;;;;;;;6.70;2.10;;;;;;;;;;110365;1259;22202;-76
2023/07/06 11:14:33;;;;;;;6.30;2.20;;;;;;;;;;110626;1276;22193;-76
2023/07/06 11:17:10;;;;;;;6.90;2.10;;;;;;;;;;110481;1276;22208;-75
2023/07/06 11:19:41;;;;;;;5.70;1.90;;;;;;;;;;110618;1253;22118;-79
2023/07/06 11:22:11;;;;;;;5.60;1.70;;;;;;;;;;110604;1276;22398;-75
2023/07/06 11:24:40;;;;;;;9.50;2.10;;;;;;;;;;110643;1276;22185;-76
2023/07/06 11:27:34;;;;;;;5.90;2.10;;;;;;;;;;110462;1276;22858;-76
2023/07/06 11:30:13;;;;;;;6.80;1.90;;;;;;;;;;110590;1256;22839;-75
2023/07/06 11:32:40;;;;;;;6.10;1.70;;;;;;;;;;110363;1276;22130;-75
2023/07/06 11:35:16;;;;;;;6.30;2.00;;;;;;;;;;110621;1276;22124;-76
2023/07/06 11:37:53;;;;;;;5.30;2.30;;;;;;;;;;110614;1276;22130;-76
2023/07/06 11:40:20;;;;;;;5.60;1.90;;;;;;;;;;110681;1257;22186;-75
2023/07/06 11:42:50;;;;;;;6.40;1.90;;;;;;;;;;110626;1276;22291;-75
2023/07/06 11:45:39;;;;;;;10.10;2.40;;;;;;;;;;110618;1276;22122;-76
2023/07/06 11:48:13;;;;;;;7.80;2.20;;;;;;;;;;110633;1276;22138;-76
2023/07/06 11:50:41;;;;;;;9.30;2.40;;;;;;;;;;110638;1257;22101;-76
2023/07/06 11:53:29;;;;;;;6.70;2.10;;;;;;;;;;110449;1276;22774;-76
2023/07/06 11:56:05;;;;;;;5.30;2.00;;;;;;;;;;110475;1276;22190;-76
2023/07/06 11:58:55;;;;;;;5.90;2.20;;;;;;;;;;110484;1276;22813;-76
2023/07/06 12:01:33;;;;;;;9.80;2.50;;;;;;;;;;110592;1257;22138;-76
2023/07/06 12:04:02;;;;;;;7.60;2.20;;;;;;;;;;110430;1276;22289;-75
2023/07/06 12:06:30;;;;;;;8.00;2.40;;;;;;;;;;110481;1276;22101;-76
2023/07/06 12:09:06;;;;;;;6.30;2.20;;;;;;;;;;110296;1276;22123;-76
2023/07/06 12:11:33;;;;;;;5.20;2.20;;;;;;;;;;110401;1261;22951;-77
2023/07/06 12:14:00;;;;;;;7.50;2.10;;;;;;;;;;110433;1276;22827;-76
2023/07/06 12:16:40;;;;;;;6.10;2.30;;;;;;;;;;110494;1276;22295;-76
2023/07/06 12:19:12;;;;;;;5.40;2.10;;;;;;;;;;110482;1276;22155;-76
2023/07/06 12:21:40;;;;;;;5.50;2.20;;;;;;;;;;110595;1258;22564;-76
2023/07/06 12:24:11;;;;;;;6.80;2.30;;;;;;;;;;110474;1276;22849;-76
2023/07/06 12:26:45;;;;;;;6.60;2.20;;;;;;;;;;110295;1276;22115;-76
2023/07/06 12:29:14;;;;;;;6.90;2.40;;;;;;;;;;110455;1276;22129;-76
2023/07/06 12:31:42;;;;;;;6.90;2.10;;;;;;;;;;110638;1257;22222;-76
2023/07/06 12:34:13;;;;;;;7.30;2.30;;;;;;;;;;110491;1276;22183;-76
2023/07/06 12:36:42;;;;;;;7.60;2.10;;;;;;;;;;110444;1276;23177;-75
2023/07/06 12:39:13;;;;;;;6.70;2.20;;;;;;;;;;110510;1276;22154;-76
2023/07/06 12:41:40;;;;;;;7.40;2.20;;;;;;;;;;110546;1257;22768;-79
2023/07/06 12:44:17;;;;;;;5.30;2.10;;;;;;;;;;110502;1276;22108;-76
2023/07/06 12:46:51;;;;;;;6.40;2.40;;;;;;;;;;110337;1276;22088;-75
2023/07/06 12:49:21;;;;;;;7.90;2.20;;;;;;;;;;110469;1276;22921;-76
2023/07/06 12:51:55;;;;;;;7.40;2.10;;;;;;;;;;110524;1256;22212;-76
2023/07/06 12:54:26;;;;;;;7.50;2.50;;;;;;;;;;110166;1278;22123;-76
2023/07/06 12:57:04;;;;;;;8.40;2.30;;;;;;;;;;110318;1278;22101;-76
2023/07/06 12:59:32;;;;;;;5.40;2.10;;;;;;;;;;110421;1270;22143;-76
2023/07/06 13:02:06;;;;;;;8.40;2.30;;;;;;;;;;110430;1259;22121;-75
2023/07/06 13:04:43;;;;;;;6.40;2.30;;;;;;;;;;110298;1278;21974;-76
2023/07/06 13:07:10;;;;;;;7.90;2.40;;;;;;;;;;110296;1278;22171;-76
2023/07/06 13:09:37;;;;;;;7.10;2.10;;;;;;;;;;110371;1278;22122;-76
2023/07/06 13:12:09;;;;;;;7.70;2.60;;;;;;;;;;110329;1260;22854;-77
2023/07/06 13:14:40;;;;;;;6.90;2.30;;;;;;;;;;110401;1278;22120;-76
2023/07/06 13:17:12;;;;;;;7.30;2.50;;;;;;;;;;110168;1278;22142;-76
2023/07/06 13:19:40;;;;;;;9.60;2.70;;;;;;;;;;110313;1278;22104;-76
2023/07/06 13:22:08;;;;;;;8.90;2.60;;;;;;;;;;110402;1256;22143;-76
2023/07/06 13:24:40;;;;;;;6.30;2.60;;;;;;;;;;110300;1278;22110;-76
2023/07/06 13:27:12;;;;;;;8.10;2.70;;;;;;;;;;110288;1278;22132;-76
2023/07/06 13:29:40;;;;;;;6.00;2.40;;;;;;;;;;110407;1278;22161;-76
2023/07/06 13:32:11;;;;;;;5.90;2.50;;;;;;;;;;110287;1256;22153;-76
2023/07/06 13:34:38;;;;;;;10.30;2.40;;;;;;;;;;110309;1278;22104;-76
2023/07/06 13:37:11;;;;;;;7.10;2.30;;;;;;;;;;110394;1278;22427;-77
2023/07/06 13:39:38;;;;;;;7.40;2.80;;;;;;;;;;110411;1278;22106;-77
2023/07/06 13:42:04;;;;;;;7.60;2.10;;;;;;;;;;110383;1278;22685;-77
2023/07/06 13:44:31;;;;;;;11.40;2.60;;;;;;;;;;110658;1260;22062;-76
2023/07/06 13:46:58;;;;;;;7.80;2.50;;;;;;;;;;110388;1278;22789;-76
2023/07/06 13:49:26;;;;;;;7.80;2.50;;;;;;;;;;110397;1278;22991;-76
2023/07/06 13:51:54;;;;;;;6.80;2.30;;;;;;;;;;110195;1278;22099;-76
2023/07/06 13:54:24;;;;;;;7.60;2.50;;;;;;;;;;110575;1259;22778;-76
2023/07/06 13:56:50;;;;;;;13.80;3.00;;;;;;;;;;110194;1278;22101;-76
2023/07/06 13:59:19;;;;;;;8.20;2.50;;;;;;;;;;110222;1278;22167;-76
2023/07/06 14:01:47;;;;;;;8.40;2.40;;;;;;;;;;110218;1278;22078;-76
2023/07/06 14:04:16;;;;;;;7.10;2.40;;;;;;;;;;110369;1261;22098;-76
2023/07/06 14:06:43;;;;;;;9.30;2.60;;;;;;;;;;110225;1278;22126;-76
2023/07/06 14:09:11;;;;;;;7.40;2.60;;;;;;;;;;110358;1278;22171;-77
2023/07/06 14:11:39;;;;;;;6.80;2.70;;;;;;;;;;110398;1278;21994;-78
2023/07/06 14:14:05;;;;;;;6.20;2.40;;;;;;;;;;110348;1272;22109;-76
2023/07/06 14:16:32;;;;;;;6.20;2.80;;;;;;;;;;110371;1278;22109;-76
2023/07/06 14:18:59;;;;;;;7.40;2.80;;;;;;;;;;110350;1278;22807;-76
2023/07/06 14:21:26;;;;;;;7.50;2.90;;;;;;;;;;110361;1278;22110;-76
2023/07/06 14:23:53;;;;;;;8.00;2.70;;;;;;;;;;110308;1271;22108;-76
2023/07/06 14:26:19;;;;;;;6.50;2.50;;;;;;;;;;110194;1278;22884;-76
2023/07/06 14:28:49;;;;;;;6.90;2.50;;;;;;;;;;110107;1278;22709;-76
2023/07/06 14:31:17;;;;;;;7.00;2.40;;;;;;;;;;110200;1278;22140;-77
2023/07/06 14:33:45;;;;;;;7.30;2.40;;;;;;;;;;110194;1259;22951;-77
2023/07/06 14:36:12;;;;;;;8.00;3.00;;;;;;;;;;110360;1278;22414;-78
2023/07/06 14:38:40;;;;;;;8.20;2.60;;;;;;;;;;110329;1278;22198;-77
2023/07/06 14:41:07;;;;;;;6.40;2.50;;;;;;;;;;110353;1278;22402;-78
2023/07/06 14:43:34;;;;;;;7.20;2.80;;;;;;;;;;110167;1255;22160;-77
2023/07/06 14:46:04;;;;;;;6.60;2.70;;;;;;;;;;110204;1278;22151;-77
2023/07/06 14:48:31;;;;;;;6.60;2.50;;;;;;;;;;110220;1278;22981;-78
2023/07/06 14:51:05;;;;;;;5.70;2.30;;;;;;;;;;110117;1279;22444;-78
2023/07/06 14:53:35;;;;;;;7.00;2.60;;;;;;;;;;110167;1269;22402;-77
2023/07/06 14:56:03;;;;;;;8.70;2.40;;;;;;;;;;110095;1259;23157;-78
2023/07/06 14:58:30;;;;;;;6.00;2.30;;;;;;;;;;110163;1279;22778;-76